sensor_id;sensor_type;location;lat;lon;timestamp;P1;durP1;ratioP1;P2;durP2;ratioP2
25868;SDS011;13688;53.154;18.136;2023-04-01T00:00:19;18.87;;;12.03;;
25868;SDS011;13688;53.154;18.136;2023-04-01T00:05:44;20.67;;;14.10;;
25868;SDS011;13688;53.154;18.136;2023-04-01T00:11:18;19.83;;;13.93;;
25868;SDS011;13688;53.154;18.136;2023-04-01T00:16:40;20.50;;;15.43;;
25868;SDS011;13688;53.154;18.136;2023-04-01T00:22:02;22.30;;;14.97;;
25868;SDS011;13688;53.154;18.136;2023-04-01T00:27:25;21.60;;;14.97;;
25868;SDS011;13688;53.154;18.136;2023-04-01T00:32:51;23.77;;;16.07;;
25868;SDS011;13688;53.154;18.136;2023-04-01T00:38:12;21.90;;;15.97;;
25868;SDS011;13688;53.154;18.136;2023-04-01T00:43:35;24.82;;;16.12;;
25868;SDS011;13688;53.154;18.136;2023-04-01T00:48:59;28.67;;;17.50;;
25868;SDS011;13688;53.154;18.136;2023-04-01T00:54:22;23.50;;;17.57;;
25868;SDS011;13688;53.154;18.136;2023-04-01T00:59:48;22.40;;;15.77;;
25868;SDS011;13688;53.154;18.136;2023-04-01T01:05:12;23.12;;;15.98;;
25868;SDS011;13688;53.154;18.136;2023-04-01T01:10:40;20.50;;;15.30;;
25868;SDS011;13688;53.154;18.136;2023-04-01T01:16:24;21.37;;;14.95;;
25868;SDS011;13688;53.154;18.136;2023-04-01T01:28:16;22.48;;;16.00;;
25868;SDS011;13688;53.154;18.136;2023-04-01T01:34:09;19.52;;;15.38;;
25868;SDS011;13688;53.154;18.136;2023-04-01T01:39:36;22.07;;;16.62;;
25868;SDS011;13688;53.154;18.136;2023-04-01T01:45:06;21.03;;;16.23;;
25868;SDS011;13688;53.154;18.136;2023-04-01T01:50:31;20.48;;;14.43;;
25868;SDS011;13688;53.154;18.136;2023-04-01T01:55:57;16.75;;;12.73;;
25868;SDS011;13688;53.154;18.136;2023-04-01T02:01:22;17.25;;;12.10;;
25868;SDS011;13688;53.154;18.136;2023-04-01T02:06:50;15.87;;;11.73;;
25868;SDS011;13688;53.154;18.136;2023-04-01T02:12:45;16.90;;;13.20;;
25868;SDS011;13688;53.154;18.136;2023-04-01T02:18:11;14.50;;;11.77;;
25868;SDS011;13688;53.154;18.136;2023-04-01T02:23:35;14.53;;;11.60;;
25868;SDS011;13688;53.154;18.136;2023-04-01T02:28:58;13.50;;;10.37;;
25868;SDS011;13688;53.154;18.136;2023-04-01T02:34:24;15.43;;;10.40;;
25868;SDS011;13688;53.154;18.136;2023-04-01T02:39:47;14.70;;;9.97;;
25868;SDS011;13688;53.154;18.136;2023-04-01T02:45:13;14.20;;;10.10;;
25868;SDS011;13688;53.154;18.136;2023-04-01T02:50:37;14.17;;;10.60;;
25868;SDS011;13688;53.154;18.136;2023-04-01T02:56:00;16.43;;;12.10;;
25868;SDS011;13688;53.154;18.136;2023-04-01T03:01:23;14.50;;;11.83;;
25868;SDS011;13688;53.154;18.136;2023-04-01T03:06:46;17.20;;;13.23;;
25868;SDS011;13688;53.154;18.136;2023-04-01T03:12:08;19.82;;;15.10;;
25868;SDS011;13688;53.154;18.136;2023-04-01T03:17:30;16.67;;;12.07;;
25868;SDS011;13688;53.154;18.136;2023-04-01T03:22:55;19.00;;;12.55;;
25868;SDS011;13688;53.154;18.136;2023-04-01T03:28:17;17.37;;;11.63;;
25868;SDS011;13688;53.154;18.136;2023-04-01T03:33:39;14.25;;;9.43;;
25868;SDS011;13688;53.154;18.136;2023-04-01T03:39:02;14.53;;;9.53;;
25868;SDS011;13688;53.154;18.136;2023-04-01T03:44:25;12.58;;;7.78;;
25868;SDS011;13688;53.154;18.136;2023-04-01T03:49:48;11.05;;;7.62;;
25868;SDS011;13688;53.154;18.136;2023-04-01T03:55:11;11.50;;;7.10;;
25868;SDS011;13688;53.154;18.136;2023-04-01T04:00:34;13.77;;;7.10;;
25868;SDS011;13688;53.154;18.136;2023-04-01T04:05:58;11.28;;;7.97;;
25868;SDS011;13688;53.154;18.136;2023-04-01T04:11:22;13.30;;;9.05;;
25868;SDS011;13688;53.154;18.136;2023-04-01T04:16:46;16.35;;;11.40;;
25868;SDS011;13688;53.154;18.136;2023-04-01T04:22:09;19.27;;;14.07;;
25868;SDS011;13688;53.154;18.136;2023-04-01T04:27:31;28.23;;;17.20;;
25868;SDS011;13688;53.154;18.136;2023-04-01T04:32:55;29.67;;;19.23;;
25868;SDS011;13688;53.154;18.136;2023-04-01T04:38:17;33.73;;;21.47;;
25868;SDS011;13688;53.154;18.136;2023-04-01T04:43:41;37.13;;;21.82;;
25868;SDS011;13688;53.154;18.136;2023-04-01T04:49:08;34.58;;;23.00;;
25868;SDS011;13688;53.154;18.136;2023-04-01T04:54:31;31.37;;;21.20;;
25868;SDS011;13688;53.154;18.136;2023-04-01T04:59:53;32.13;;;20.43;;
25868;SDS011;13688;53.154;18.136;2023-04-01T05:05:16;28.17;;;19.73;;
25868;SDS011;13688;53.154;18.136;2023-04-01T05:10:39;24.65;;;17.00;;
25868;SDS011;13688;53.154;18.136;2023-04-01T05:16:01;22.73;;;15.40;;
25868;SDS011;13688;53.154;18.136;2023-04-01T05:21:27;26.23;;;15.77;;
25868;SDS011;13688;53.154;18.136;2023-04-01T05:26:50;26.73;;;16.40;;
25868;SDS011;13688;53.154;18.136;2023-04-01T05:32:12;22.40;;;15.47;;
25868;SDS011;13688;53.154;18.136;2023-04-01T05:37:35;26.97;;;13.75;;
25868;SDS011;13688;53.154;18.136;2023-04-01T05:42:58;20.82;;;12.85;;
25868;SDS011;13688;53.154;18.136;2023-04-01T05:48:20;22.93;;;14.00;;
25868;SDS011;13688;53.154;18.136;2023-04-01T05:53:43;24.72;;;16.15;;
25868;SDS011;13688;53.154;18.136;2023-04-01T05:59:06;26.33;;;15.25;;
25868;SDS011;13688;53.154;18.136;2023-04-01T06:04:31;22.22;;;15.23;;
25868;SDS011;13688;53.154;18.136;2023-04-01T06:09:56;18.67;;;13.40;;
25868;SDS011;13688;53.154;18.136;2023-04-01T06:15:38;18.00;;;12.73;;
25868;SDS011;13688;53.154;18.136;2023-04-01T06:21:14;16.62;;;11.73;;
25868;SDS011;13688;53.154;18.136;2023-04-01T06:26:59;17.92;;;11.78;;
25868;SDS011;13688;53.154;18.136;2023-04-01T06:33:19;17.48;;;11.73;;
25868;SDS011;13688;53.154;18.136;2023-04-01T06:50:26;13.80;;;10.57;;
25868;SDS011;13688;53.154;18.136;2023-04-01T06:55:57;16.83;;;11.30;;
25868;SDS011;13688;53.154;18.136;2023-04-01T07:06:59;18.00;;;12.27;;
25868;SDS011;13688;53.154;18.136;2023-04-01T07:18:17;16.90;;;11.13;;
25868;SDS011;13688;53.154;18.136;2023-04-01T07:23:44;13.87;;;9.73;;
25868;SDS011;13688;53.154;18.136;2023-04-01T07:29:10;15.07;;;9.93;;
25868;SDS011;13688;53.154;18.136;2023-04-01T07:34:46;14.87;;;9.60;;
25868;SDS011;13688;53.154;18.136;2023-04-01T07:40:20;15.93;;;9.90;;
25868;SDS011;13688;53.154;18.136;2023-04-01T07:57:40;15.00;;;10.77;;
25868;SDS011;13688;53.154;18.136;2023-04-01T08:20:01;13.50;;;8.57;;
25868;SDS011;13688;53.154;18.136;2023-04-01T08:25:27;9.38;;;7.90;;
25868;SDS011;13688;53.154;18.136;2023-04-01T08:31:04;9.50;;;7.10;;
25868;SDS011;13688;53.154;18.136;2023-04-01T08:36:41;10.53;;;6.50;;
25868;SDS011;13688;53.154;18.136;2023-04-01T08:59:32;7.40;;;5.93;;
25868;SDS011;13688;53.154;18.136;2023-04-01T09:22:18;5.60;;;4.80;;
25868;SDS011;13688;53.154;18.136;2023-04-01T09:39:24;8.17;;;5.50;;
25868;SDS011;13688;53.154;18.136;2023-04-01T09:44:54;6.87;;;4.23;;
25868;SDS011;13688;53.154;18.136;2023-04-01T09:50:35;5.93;;;4.10;;
25868;SDS011;13688;53.154;18.136;2023-04-01T10:02:53;5.37;;;3.93;;
25868;SDS011;13688;53.154;18.136;2023-04-01T10:26:53;5.80;;;3.93;;
25868;SDS011;13688;53.154;18.136;2023-04-01T11:30:49;4.90;;;2.90;;
25868;SDS011;13688;53.154;18.136;2023-04-01T11:36:20;3.87;;;2.83;;
25868;SDS011;13688;53.154;18.136;2023-04-01T11:42:20;4.33;;;2.60;;
25868;SDS011;13688;53.154;18.136;2023-04-01T12:12:00;3.08;;;2.12;;
25868;SDS011;13688;53.154;18.136;2023-04-01T12:41:09;3.43;;;2.10;;
25868;SDS011;13688;53.154;18.136;2023-04-01T12:47:12;2.63;;;1.70;;
25868;SDS011;13688;53.154;18.136;2023-04-01T13:04:33;3.25;;;2.22;;
25868;SDS011;13688;53.154;18.136;2023-04-01T13:16:02;3.97;;;2.40;;
25868;SDS011;13688;53.154;18.136;2023-04-01T13:27:38;4.28;;;1.85;;
25868;SDS011;13688;53.154;18.136;2023-04-01T13:38:50;8.18;;;5.45;;
25868;SDS011;13688;53.154;18.136;2023-04-01T13:44:46;3.83;;;1.90;;
25868;SDS011;13688;53.154;18.136;2023-04-01T14:21:00;3.80;;;1.98;;
25868;SDS011;13688;53.154;18.136;2023-04-01T14:26:53;3.43;;;2.43;;
25868;SDS011;13688;53.154;18.136;2023-04-01T14:38:51;3.87;;;2.70;;
25868;SDS011;13688;53.154;18.136;2023-04-01T14:44:33;3.53;;;2.60;;
25868;SDS011;13688;53.154;18.136;2023-04-01T14:50:18;4.08;;;2.40;;
25868;SDS011;13688;53.154;18.136;2023-04-01T15:01:31;4.17;;;2.37;;
25868;SDS011;13688;53.154;18.136;2023-04-01T15:06:57;6.08;;;2.92;;
25868;SDS011;13688;53.154;18.136;2023-04-01T15:12:52;6.20;;;3.10;;
25868;SDS011;13688;53.154;18.136;2023-04-01T15:53:34;6.37;;;3.30;;
25868;SDS011;13688;53.154;18.136;2023-04-01T16:05:00;4.83;;;3.37;;
25868;SDS011;13688;53.154;18.136;2023-04-01T16:23:00;5.47;;;3.10;;
25868;SDS011;13688;53.154;18.136;2023-04-01T16:28:38;4.93;;;3.00;;
25868;SDS011;13688;53.154;18.136;2023-04-01T16:34:30;5.00;;;3.17;;
25868;SDS011;13688;53.154;18.136;2023-04-01T16:40:10;4.70;;;2.93;;
25868;SDS011;13688;53.154;18.136;2023-04-01T16:46:07;5.80;;;3.67;;
25868;SDS011;13688;53.154;18.136;2023-04-01T17:08:44;4.33;;;2.40;;
25868;SDS011;13688;53.154;18.136;2023-04-01T17:14:28;2.97;;;2.60;;
25868;SDS011;13688;53.154;18.136;2023-04-01T17:26:26;5.03;;;3.27;;
25868;SDS011;13688;53.154;18.136;2023-04-01T17:49:35;7.90;;;4.78;;
25868;SDS011;13688;53.154;18.136;2023-04-01T18:01:21;7.93;;;5.23;;
25868;SDS011;13688;53.154;18.136;2023-04-01T18:24:30;8.03;;;4.90;;
25868;SDS011;13688;53.154;18.136;2023-04-01T18:30:11;12.43;;;8.10;;
25868;SDS011;13688;53.154;18.136;2023-04-01T18:41:35;9.85;;;6.87;;
25868;SDS011;13688;53.154;18.136;2023-04-01T18:47:37;8.40;;;6.10;;
25868;SDS011;13688;53.154;18.136;2023-04-01T18:59:14;11.93;;;7.43;;
25868;SDS011;13688;53.154;18.136;2023-04-01T19:04:41;8.35;;;5.22;;
25868;SDS011;13688;53.154;18.136;2023-04-01T19:10:37;10.47;;;6.27;;
25868;SDS011;13688;53.154;18.136;2023-04-01T19:22:03;13.37;;;6.40;;
25868;SDS011;13688;53.154;18.136;2023-04-01T19:28:20;10.40;;;6.10;;
25868;SDS011;13688;53.154;18.136;2023-04-01T19:45:33;14.07;;;7.50;;
25868;SDS011;13688;53.154;18.136;2023-04-01T19:50:58;11.10;;;7.03;;
25868;SDS011;13688;53.154;18.136;2023-04-01T19:56:43;12.88;;;7.37;;
25868;SDS011;13688;53.154;18.136;2023-04-01T20:08:21;11.12;;;7.30;;
25868;SDS011;13688;53.154;18.136;2023-04-01T20:36:48;10.67;;;6.07;;
25868;SDS011;13688;53.154;18.136;2023-04-01T20:42:34;9.57;;;6.77;;
25868;SDS011;13688;53.154;18.136;2023-04-01T20:48:02;15.27;;;8.40;;
25868;SDS011;13688;53.154;18.136;2023-04-01T20:53:57;12.87;;;8.10;;
25868;SDS011;13688;53.154;18.136;2023-04-01T21:00:03;10.80;;;6.60;;
25868;SDS011;13688;53.154;18.136;2023-04-01T21:11:50;18.67;;;10.30;;
25868;SDS011;13688;53.154;18.136;2023-04-01T21:17:48;9.57;;;6.43;;
25868;SDS011;13688;53.154;18.136;2023-04-01T21:23:45;10.23;;;5.70;;
25868;SDS011;13688;53.154;18.136;2023-04-01T21:35:08;19.27;;;11.63;;
25868;SDS011;13688;53.154;18.136;2023-04-01T22:21:38;11.77;;;6.93;;
25868;SDS011;13688;53.154;18.136;2023-04-01T22:27:26;12.13;;;7.43;;
25868;SDS011;13688;53.154;18.136;2023-04-01T22:33:07;10.20;;;6.30;;
25868;SDS011;13688;53.154;18.136;2023-04-01T22:45:07;17.27;;;9.98;;
25868;SDS011;13688;53.154;18.136;2023-04-01T22:51:13;12.37;;;7.10;;
25868;SDS011;13688;53.154;18.136;2023-04-01T22:56:55;11.03;;;6.50;;
25868;SDS011;13688;53.154;18.136;2023-04-01T23:02:30;8.70;;;5.17;;
25868;SDS011;13688;53.154;18.136;2023-04-01T23:08:29;7.23;;;5.23;;
25868;SDS011;13688;53.154;18.136;2023-04-01T23:26:07;7.67;;;5.03;;
25868;SDS011;13688;53.154;18.136;2023-04-01T23:31:34;7.27;;;4.63;;
25868;SDS011;13688;53.154;18.136;2023-04-01T23:37:09;6.90;;;5.10;;
25868;SDS011;13688;53.154;18.136;2023-04-01T23:42:42;7.83;;;4.03;;
25868;SDS011;13688;53.154;18.136;2023-04-01T23:53:24;8.40;;;4.90;;
25868;SDS011;13688;53.154;18.136;2023-04-01T23:58:51;7.50;;;4.83;;
